N84VK LFTW-LFMP
Flight info
| Callsign | N84VK |
|---|---|
| Flight time | 0h 46m |
| Altitude | 4000 |
| Route | BALRU DCT BOLSA DCT MU504 DCT BAMGO |
| Aircraft | PA24/L-SDGRY/S |
Departure
| Time | 2026-04-17 21:31 |
|---|---|
| Airport | Nîmes-Arles-Camargue Airport (LFTW) |
Arrival
| Time | 2026-04-17 22:18 |
|---|---|
| Airport | Perpignan-Rivesaltes (Llabanère) Airport (LFMP) |
| Time | Latitude | Longitude | Altitude | Speed | Heading |
|---|---|---|---|---|---|
| 2026-04-17 21:15 | 43.75246 | 4.41324 | 311 ft | 0 kts | 177° |
| 2026-04-17 21:27 | 43.75224 | 4.41327 | 311 ft | 11 kts | 161° |
| 2026-04-17 21:27 | 43.75162 | 4.41416 | 311 ft | 16 kts | 159° |
| 2026-04-17 21:27 | 43.75139 | 4.41506 | 313 ft | 9 kts | 86° |
| 2026-04-17 21:28 | 43.75141 | 4.41539 | 313 ft | 0 kts | 88° |
| 2026-04-17 21:29 | 43.75141 | 4.41544 | 313 ft | 6 kts | 88° |
| 2026-04-17 21:30 | 43.75150 | 4.41671 | 313 ft | 10 kts | 40° |
| 2026-04-17 21:30 | 43.75166 | 4.41675 | 313 ft | 0 kts | 354° |
| 2026-04-17 21:30 | 43.75339 | 4.41660 | 314 ft | 66 kts | 358° |
| 2026-04-17 21:31 | 43.75863 | 4.41649 | 571 ft | 74 kts | 354° |
| 2026-04-17 21:31 | 43.76341 | 4.41591 | 908 ft | 66 kts | 350° |
| 2026-04-17 21:31 | 43.76780 | 4.41499 | 1170 ft | 63 kts | 352° |
| 2026-04-17 21:31 | 43.77209 | 4.41408 | 1431 ft | 60 kts | 354° |
| 2026-04-17 21:32 | 43.77639 | 4.41309 | 1635 ft | 64 kts | 352° |
| 2026-04-17 21:32 | 43.78051 | 4.41190 | 1904 ft | 63 kts | 353° |
| 2026-04-17 21:32 | 43.78490 | 4.41058 | 2148 ft | 64 kts | 347° |
| 2026-04-17 21:32 | 43.78889 | 4.40740 | 2397 ft | 70 kts | 328° |
| 2026-04-17 21:33 | 43.79228 | 4.40253 | 2656 ft | 71 kts | 318° |
| 2026-04-17 21:33 | 43.79539 | 4.39697 | 2886 ft | 74 kts | 313° |
| 2026-04-17 21:33 | 43.79825 | 4.39099 | 3171 ft | 76 kts | 308° |
| 2026-04-17 21:33 | 43.80084 | 4.38456 | 3459 ft | 77 kts | 304° |
| 2026-04-17 21:34 | 43.80317 | 4.37783 | 3727 ft | 78 kts | 299° |
| 2026-04-17 21:34 | 43.80517 | 4.37077 | 3995 ft | 79 kts | 295° |
| 2026-04-17 21:34 | 43.80809 | 4.35592 | 4564 ft | 80 kts | 287° |
| 2026-04-17 21:35 | 43.80896 | 4.34818 | 4825 ft | 83 kts | 279° |
| 2026-04-17 21:35 | 43.80865 | 4.34022 | 5092 ft | 86 kts | 257° |
| 2026-04-17 21:35 | 43.80674 | 4.33228 | 5374 ft | 86 kts | 251° |
| 2026-04-17 21:35 | 43.80436 | 4.32453 | 5638 ft | 90 kts | 253° |
| 2026-04-17 21:36 | 43.80208 | 4.31664 | 5937 ft | 87 kts | 254° |
| 2026-04-17 21:36 | 43.79984 | 4.30877 | 6200 ft | 90 kts | 253° |
| 2026-04-17 21:36 | 43.79534 | 4.30212 | 6331 ft | 110 kts | 214° |
| 2026-04-17 21:36 | 43.78839 | 4.29559 | 6389 ft | 131 kts | 222° |
| 2026-04-17 21:37 | 43.78136 | 4.28608 | 6330 ft | 151 kts | 231° |
| 2026-04-17 21:37 | 43.77382 | 4.27456 | 6176 ft | 166 kts | 231° |
| 2026-04-17 21:37 | 43.76613 | 4.26272 | 6201 ft | 166 kts | 231° |
| 2026-04-17 21:37 | 43.75841 | 4.25067 | 6198 ft | 169 kts | 233° |
| 2026-04-17 21:38 | 43.75029 | 4.23886 | 6195 ft | 169 kts | 230° |
| 2026-04-17 21:38 | 43.74242 | 4.22666 | 6190 ft | 171 kts | 232° |
| 2026-04-17 21:38 | 43.73438 | 4.21449 | 6188 ft | 171 kts | 230° |
| 2026-04-17 21:38 | 43.72630 | 4.20223 | 6186 ft | 173 kts | 231° |
| 2026-04-17 21:39 | 43.71838 | 4.18975 | 6186 ft | 173 kts | 232° |
| 2026-04-17 21:39 | 43.71035 | 4.17741 | 6188 ft | 173 kts | 230° |
| 2026-04-17 21:39 | 43.70211 | 4.16520 | 6152 ft | 175 kts | 230° |
| 2026-04-17 21:39 | 43.69414 | 4.15257 | 6158 ft | 174 kts | 232° |
| 2026-04-17 21:40 | 43.68614 | 4.14007 | 6177 ft | 173 kts | 230° |
| 2026-04-17 21:40 | 43.67798 | 4.12808 | 6185 ft | 174 kts | 231° |
| 2026-04-17 21:40 | 43.66978 | 4.11585 | 6188 ft | 174 kts | 229° |
| 2026-04-17 21:40 | 43.66183 | 4.10323 | 6189 ft | 174 kts | 231° |
| 2026-04-17 21:41 | 43.65373 | 4.09086 | 6190 ft | 174 kts | 231° |
| 2026-04-17 21:41 | 43.64578 | 4.07824 | 6188 ft | 174 kts | 232° |
| 2026-04-17 21:41 | 43.63782 | 4.06565 | 6192 ft | 173 kts | 231° |
| 2026-04-17 21:41 | 43.62960 | 4.05345 | 6190 ft | 174 kts | 229° |
| 2026-04-17 21:42 | 43.62141 | 4.04113 | 6188 ft | 174 kts | 229° |
| 2026-04-17 21:42 | 43.61360 | 4.02829 | 6187 ft | 175 kts | 233° |
| 2026-04-17 21:42 | 43.60535 | 4.01604 | 6190 ft | 175 kts | 228° |
| 2026-04-17 21:42 | 43.59709 | 4.00374 | 6189 ft | 174 kts | 229° |
| 2026-04-17 21:43 | 43.58913 | 3.99123 | 6190 ft | 173 kts | 231° |
| 2026-04-17 21:43 | 43.58116 | 3.97882 | 6191 ft | 172 kts | 233° |
| 2026-04-17 21:43 | 43.57495 | 3.96469 | 6191 ft | 173 kts | 244° |
| 2026-04-17 21:43 | 43.56943 | 3.94998 | 6189 ft | 172 kts | 246° |
| 2026-04-17 21:44 | 43.56402 | 3.93523 | 6192 ft | 172 kts | 245° |
| 2026-04-17 21:44 | 43.55851 | 3.92054 | 6189 ft | 172 kts | 244° |
| 2026-04-17 21:44 | 43.55306 | 3.90614 | 6188 ft | 171 kts | 245° |
| 2026-04-17 21:44 | 43.54759 | 3.89161 | 6189 ft | 171 kts | 245° |
| 2026-04-17 21:45 | 43.54232 | 3.87696 | 6189 ft | 171 kts | 247° |
| 2026-04-17 21:45 | 43.53699 | 3.86230 | 6192 ft | 171 kts | 245° |
| 2026-04-17 21:45 | 43.53143 | 3.84771 | 6190 ft | 173 kts | 245° |
| 2026-04-17 21:45 | 43.52601 | 3.83299 | 6189 ft | 172 kts | 245° |
| 2026-04-17 21:46 | 43.52034 | 3.81851 | 6189 ft | 171 kts | 245° |
| 2026-04-17 21:46 | 43.51488 | 3.80398 | 6186 ft | 170 kts | 244° |
| 2026-04-17 21:46 | 43.50949 | 3.78939 | 6188 ft | 172 kts | 244° |
| 2026-04-17 21:46 | 43.50370 | 3.77500 | 6187 ft | 172 kts | 245° |
| 2026-04-17 21:47 | 43.49830 | 3.76034 | 6186 ft | 171 kts | 245° |
| 2026-04-17 21:47 | 43.49303 | 3.74597 | 6187 ft | 170 kts | 246° |
| 2026-04-17 21:47 | 43.48803 | 3.73118 | 6187 ft | 170 kts | 247° |
| 2026-04-17 21:47 | 43.48283 | 3.71652 | 6185 ft | 170 kts | 244° |
| 2026-04-17 21:48 | 43.47716 | 3.70226 | 6182 ft | 169 kts | 243° |
| 2026-04-17 21:48 | 43.47161 | 3.68793 | 6187 ft | 170 kts | 248° |
| 2026-04-17 21:48 | 43.46619 | 3.67330 | 6183 ft | 171 kts | 243° |
| 2026-04-17 21:48 | 43.46062 | 3.65868 | 6187 ft | 172 kts | 247° |
| 2026-04-17 21:49 | 43.45579 | 3.64349 | 6168 ft | 172 kts | 248° |
| 2026-04-17 21:49 | 43.45064 | 3.62875 | 6169 ft | 170 kts | 244° |
| 2026-04-17 21:49 | 43.44494 | 3.61465 | 6168 ft | 172 kts | 244° |
| 2026-04-17 21:49 | 43.43976 | 3.59987 | 6168 ft | 170 kts | 245° |
| 2026-04-17 21:50 | 43.43428 | 3.58547 | 6167 ft | 169 kts | 245° |
| 2026-04-17 21:50 | 43.42882 | 3.57123 | 6167 ft | 168 kts | 243° |
| 2026-04-17 21:50 | 43.42326 | 3.55712 | 6165 ft | 168 kts | 244° |
| 2026-04-17 21:50 | 43.41781 | 3.54282 | 6167 ft | 169 kts | 246° |
| 2026-04-17 21:51 | 43.41255 | 3.52835 | 6165 ft | 169 kts | 245° |
| 2026-04-17 21:51 | 43.40724 | 3.51391 | 6165 ft | 169 kts | 245° |
| 2026-04-17 21:51 | 43.40206 | 3.49934 | 6165 ft | 169 kts | 246° |
| 2026-04-17 21:51 | 43.39687 | 3.48486 | 6164 ft | 169 kts | 245° |
| 2026-04-17 21:52 | 43.39156 | 3.47050 | 6163 ft | 169 kts | 245° |
| 2026-04-17 21:52 | 43.38618 | 3.45615 | 6163 ft | 168 kts | 244° |
| 2026-04-17 21:52 | 43.38076 | 3.44190 | 6163 ft | 168 kts | 244° |
| 2026-04-17 21:52 | 43.37549 | 3.42755 | 6160 ft | 168 kts | 245° |
| 2026-04-17 21:53 | 43.37021 | 3.41313 | 6164 ft | 169 kts | 246° |
| 2026-04-17 21:53 | 43.36506 | 3.39860 | 6163 ft | 169 kts | 246° |
| 2026-04-17 21:53 | 43.35987 | 3.38404 | 6162 ft | 169 kts | 245° |
| 2026-04-17 21:53 | 43.35465 | 3.36952 | 6165 ft | 169 kts | 245° |
| 2026-04-17 21:54 | 43.34919 | 3.35521 | 6164 ft | 169 kts | 245° |
| 2026-04-17 21:54 | 43.34374 | 3.34079 | 6162 ft | 170 kts | 245° |
| 2026-04-17 21:54 | 43.33838 | 3.32641 | 6163 ft | 169 kts | 244° |
| 2026-04-17 21:54 | 43.33125 | 3.31372 | 6165 ft | 170 kts | 226° |
| 2026-04-17 21:55 | 43.32323 | 3.30171 | 6162 ft | 170 kts | 230° |
| 2026-04-17 21:55 | 43.31488 | 3.29022 | 6164 ft | 170 kts | 223° |
| 2026-04-17 21:55 | 43.30892 | 3.28323 | 6162 ft | 170 kts | 222° |
| 2026-04-17 21:55 | 43.29993 | 3.27258 | 6163 ft | 170 kts | 221° |
| 2026-04-17 21:56 | 43.29080 | 3.26221 | 6162 ft | 170 kts | 222° |
| 2026-04-17 21:56 | 43.27887 | 3.24813 | 6162 ft | 170 kts | 222° |
| 2026-04-17 21:56 | 43.26982 | 3.23765 | 6162 ft | 170 kts | 221° |
| 2026-04-17 21:56 | 43.26368 | 3.23061 | 6161 ft | 170 kts | 221° |
| 2026-04-17 21:57 | 43.25464 | 3.22020 | 6162 ft | 170 kts | 221° |
| 2026-04-17 21:57 | 43.24558 | 3.20983 | 6160 ft | 170 kts | 221° |
| 2026-04-17 21:57 | 43.23629 | 3.20006 | 6162 ft | 171 kts | 216° |
| 2026-04-17 21:57 | 43.22551 | 3.19324 | 6163 ft | 172 kts | 202° |
| 2026-04-17 21:58 | 43.21426 | 3.18734 | 6161 ft | 174 kts | 203° |
| 2026-04-17 21:58 | 43.20290 | 3.18157 | 6164 ft | 174 kts | 200° |
| 2026-04-17 21:58 | 43.19138 | 3.17675 | 6164 ft | 173 kts | 195° |
| 2026-04-17 21:58 | 43.17969 | 3.17260 | 6161 ft | 174 kts | 198° |
| 2026-04-17 21:59 | 43.16811 | 3.16778 | 6155 ft | 173 kts | 199° |
| 2026-04-17 21:59 | 43.15658 | 3.16279 | 6161 ft | 175 kts | 198° |
| 2026-04-17 21:59 | 43.14479 | 3.15805 | 6154 ft | 176 kts | 197° |
| 2026-04-17 21:59 | 43.13315 | 3.15300 | 6157 ft | 175 kts | 200° |
| 2026-04-17 22:00 | 43.12167 | 3.14770 | 6158 ft | 174 kts | 200° |
| 2026-04-17 22:00 | 43.11018 | 3.14253 | 6157 ft | 173 kts | 200° |
| 2026-04-17 22:00 | 43.09875 | 3.13741 | 6155 ft | 173 kts | 200° |
| 2026-04-17 22:00 | 43.08731 | 3.13230 | 6158 ft | 173 kts | 200° |
| 2026-04-17 22:01 | 43.07589 | 3.12713 | 6153 ft | 173 kts | 200° |
| 2026-04-17 22:01 | 43.06444 | 3.12200 | 6157 ft | 173 kts | 200° |
| 2026-04-17 22:01 | 43.05298 | 3.11683 | 6156 ft | 174 kts | 200° |
| 2026-04-17 22:01 | 43.04166 | 3.11173 | 6156 ft | 174 kts | 200° |
| 2026-04-17 22:02 | 43.03018 | 3.10659 | 6156 ft | 174 kts | 200° |
| 2026-04-17 22:02 | 43.01862 | 3.10142 | 6049 ft | 180 kts | 201° |
| 2026-04-17 22:02 | 43.00652 | 3.09590 | 5851 ft | 184 kts | 200° |
| 2026-04-17 22:02 | 42.99423 | 3.09037 | 5604 ft | 189 kts | 200° |
| 2026-04-17 22:03 | 42.98172 | 3.08481 | 5420 ft | 188 kts | 200° |
| 2026-04-17 22:03 | 42.96942 | 3.07930 | 5299 ft | 185 kts | 200° |
| 2026-04-17 22:03 | 42.95713 | 3.07379 | 5111 ft | 186 kts | 200° |
| 2026-04-17 22:03 | 42.94493 | 3.06835 | 5055 ft | 180 kts | 200° |
| 2026-04-17 22:04 | 42.93311 | 3.06306 | 5052 ft | 177 kts | 200° |
| 2026-04-17 22:04 | 42.92150 | 3.05787 | 5058 ft | 175 kts | 200° |
| 2026-04-17 22:04 | 42.91122 | 3.04967 | 5064 ft | 172 kts | 233° |
| 2026-04-17 22:04 | 42.90675 | 3.03497 | 5065 ft | 166 kts | 257° |
| 2026-04-17 22:05 | 42.90469 | 3.01960 | 5069 ft | 165 kts | 274° |
| 2026-04-17 22:05 | 42.90700 | 3.00455 | 5068 ft | 161 kts | 291° |
| 2026-04-17 22:05 | 42.91033 | 2.99027 | 5067 ft | 159 kts | 290° |
| 2026-04-17 22:05 | 42.91593 | 2.97748 | 5071 ft | 157 kts | 310° |
| 2026-04-17 22:06 | 42.92302 | 2.96617 | 5065 ft | 156 kts | 313° |
| 2026-04-17 22:06 | 42.93021 | 2.95512 | 5073 ft | 156 kts | 313° |
| 2026-04-17 22:06 | 42.93738 | 2.94405 | 5070 ft | 156 kts | 313° |
| 2026-04-17 22:06 | 42.94451 | 2.93302 | 5066 ft | 155 kts | 313° |
| 2026-04-17 22:07 | 42.95160 | 2.92193 | 5072 ft | 155 kts | 313° |
| 2026-04-17 22:07 | 42.95857 | 2.91070 | 5069 ft | 156 kts | 312° |
| 2026-04-17 22:07 | 42.96563 | 2.89943 | 5073 ft | 157 kts | 312° |
| 2026-04-17 22:07 | 42.97271 | 2.88803 | 5069 ft | 158 kts | 312° |
| 2026-04-17 22:08 | 42.97970 | 2.87651 | 5069 ft | 157 kts | 311° |
| 2026-04-17 22:08 | 42.98667 | 2.86499 | 5069 ft | 157 kts | 311° |
| 2026-04-17 22:08 | 42.99367 | 2.85348 | 5070 ft | 157 kts | 311° |
| 2026-04-17 22:08 | 43.00066 | 2.84196 | 5069 ft | 158 kts | 311° |
| 2026-04-17 22:09 | 43.00764 | 2.83035 | 5066 ft | 158 kts | 311° |
| 2026-04-17 22:09 | 43.01455 | 2.81875 | 5050 ft | 158 kts | 311° |
| 2026-04-17 22:09 | 43.02151 | 2.80718 | 5044 ft | 157 kts | 311° |
| 2026-04-17 22:09 | 43.02834 | 2.79518 | 4913 ft | 164 kts | 302° |
| 2026-04-17 22:10 | 43.03040 | 2.77960 | 4650 ft | 175 kts | 263° |
| 2026-04-17 22:10 | 43.02658 | 2.76339 | 4531 ft | 177 kts | 257° |
| 2026-04-17 22:10 | 43.02326 | 2.74752 | 4504 ft | 171 kts | 253° |
| 2026-04-17 22:10 | 43.01751 | 2.73349 | 4498 ft | 169 kts | 241° |
| 2026-04-17 22:11 | 43.01133 | 2.72011 | 4486 ft | 168 kts | 241° |
| 2026-04-17 22:11 | 43.00507 | 2.70669 | 4483 ft | 167 kts | 242° |
| 2026-04-17 22:11 | 42.99869 | 2.69346 | 4486 ft | 166 kts | 234° |
| 2026-04-17 22:11 | 42.99000 | 2.68299 | 4470 ft | 169 kts | 215° |
| 2026-04-17 22:12 | 42.97908 | 2.67707 | 4435 ft | 171 kts | 194° |
| 2026-04-17 22:12 | 42.96755 | 2.67944 | 4422 ft | 173 kts | 153° |
| 2026-04-17 22:12 | 42.95801 | 2.68959 | 4459 ft | 172 kts | 143° |
| 2026-04-17 22:12 | 42.94798 | 2.69792 | 4522 ft | 172 kts | 149° |
| 2026-04-17 22:13 | 42.93757 | 2.70635 | 4483 ft | 175 kts | 149° |
| 2026-04-17 22:13 | 42.92731 | 2.71513 | 4539 ft | 173 kts | 147° |
| 2026-04-17 22:13 | 42.91734 | 2.72421 | 4580 ft | 172 kts | 146° |
| 2026-04-17 22:13 | 42.90723 | 2.73362 | 4400 ft | 183 kts | 147° |
| 2026-04-17 22:14 | 42.89593 | 2.74296 | 4068 ft | 194 kts | 151° |
| 2026-04-17 22:14 | 42.88416 | 2.75222 | 3758 ft | 196 kts | 150° |
| 2026-04-17 22:14 | 42.87256 | 2.76168 | 3517 ft | 191 kts | 148° |
| 2026-04-17 22:14 | 42.86149 | 2.77183 | 3176 ft | 194 kts | 146° |
| 2026-04-17 22:15 | 42.85002 | 2.78199 | 2770 ft | 197 kts | 149° |
| 2026-04-17 22:15 | 42.83833 | 2.79131 | 2535 ft | 192 kts | 152° |
| 2026-04-17 22:15 | 42.82697 | 2.80088 | 2208 ft | 195 kts | 147° |
| 2026-04-17 22:15 | 42.81552 | 2.81044 | 1820 ft | 187 kts | 153° |
| 2026-04-17 22:16 | 42.80491 | 2.81909 | 1622 ft | 167 kts | 147° |
| 2026-04-17 22:16 | 42.79563 | 2.82770 | 1426 ft | 157 kts | 150° |
| 2026-04-17 22:16 | 42.78627 | 2.83517 | 1154 ft | 156 kts | 153° |
| 2026-04-17 22:16 | 42.77747 | 2.84232 | 868 ft | 135 kts | 148° |
| 2026-04-17 22:17 | 42.77038 | 2.84842 | 627 ft | 106 kts | 154° |
| 2026-04-17 22:17 | 42.76470 | 2.85299 | 457 ft | 83 kts | 155° |
| 2026-04-17 22:17 | 42.76000 | 2.85683 | 325 ft | 76 kts | 155° |
| 2026-04-17 22:17 | 42.75559 | 2.86050 | 229 ft | 75 kts | 154° |
| 2026-04-17 22:18 | 42.75129 | 2.86416 | 140 ft | 67 kts | 154° |
| 2026-04-17 22:18 | 42.74797 | 2.86696 | 135 ft | 45 kts | 148° |
| 2026-04-17 22:18 | 42.74584 | 2.86874 | 137 ft | 28 kts | 148° |
| 2026-04-17 22:18 | 42.74457 | 2.86984 | 139 ft | 16 kts | 146° |
| 2026-04-17 22:19 | 42.74390 | 2.87051 | 138 ft | 8 kts | 150° |
| 2026-04-17 22:19 | 42.74348 | 2.87081 | 138 ft | 20 kts | 152° |
| 2026-04-17 22:19 | 42.74209 | 2.87187 | 137 ft | 12 kts | 152° |
| 2026-04-17 22:19 | 42.74116 | 2.87241 | 135 ft | 15 kts | 177° |
| 2026-04-17 22:20 | 42.74056 | 2.87197 | 136 ft | 5 kts | 233° |
| 2026-04-17 22:20 | 42.74038 | 2.87162 | 137 ft | 1 kts | 237° |
| 2026-04-17 22:20 | 42.74032 | 2.87148 | 137 ft | 0 kts | 237° |
| 2026-04-17 22:20 | 42.74031 | 2.87146 | 137 ft | 0 kts | 237° |
| 2026-04-17 22:21 | 42.74028 | 2.87140 | 137 ft | 0 kts | 236° |
| 2026-04-17 22:21 | 42.73975 | 2.87037 | 140 ft | 22 kts | 242° |
| 2026-04-17 22:21 | 42.73957 | 2.86930 | 143 ft | 7 kts | 260° |
| 2026-04-17 22:21 | 42.73963 | 2.86884 | 144 ft | 1 kts | 317° |
| 2026-04-17 22:22 | 42.73984 | 2.86873 | 144 ft | 6 kts | 351° |
| 2026-04-17 22:22 | 42.73992 | 2.86871 | 144 ft | 0 kts | 351° |